sensor_id;sensor_type;location;lat;lon;timestamp;P1;durP1;ratioP1;P2;durP2;ratioP2
76552;SDS011;65395;53.168;18.156;2024-01-30T00:00:08;43.60;;;19.60;;
76552;SDS011;65395;53.168;18.156;2024-01-30T00:02:55;45.80;;;19.70;;
76552;SDS011;65395;53.168;18.156;2024-01-30T00:05:22;44.20;;;20.00;;
76552;SDS011;65395;53.168;18.156;2024-01-30T00:07:50;46.60;;;19.00;;
76552;SDS011;65395;53.168;18.156;2024-01-30T00:10:17;46.20;;;19.40;;
76552;SDS011;65395;53.168;18.156;2024-01-30T00:12:44;46.50;;;20.00;;
76552;SDS011;65395;53.168;18.156;2024-01-30T00:15:11;44.70;;;19.90;;
76552;SDS011;65395;53.168;18.156;2024-01-30T00:17:38;44.00;;;18.70;;
76552;SDS011;65395;53.168;18.156;2024-01-30T00:20:05;46.50;;;19.60;;
76552;SDS011;65395;53.168;18.156;2024-01-30T00:22:33;43.50;;;18.50;;
76552;SDS011;65395;53.168;18.156;2024-01-30T00:25:00;43.10;;;18.70;;
76552;SDS011;65395;53.168;18.156;2024-01-30T00:27:27;45.70;;;18.50;;
76552;SDS011;65395;53.168;18.156;2024-01-30T00:29:54;40.70;;;18.70;;
76552;SDS011;65395;53.168;18.156;2024-01-30T00:32:21;44.90;;;18.60;;
76552;SDS011;65395;53.168;18.156;2024-01-30T00:34:49;45.50;;;19.10;;
76552;SDS011;65395;53.168;18.156;2024-01-30T00:37:16;37.50;;;18.40;;
76552;SDS011;65395;53.168;18.156;2024-01-30T00:39:43;40.80;;;18.10;;
76552;SDS011;65395;53.168;18.156;2024-01-30T00:42:10;44.90;;;18.50;;
76552;SDS011;65395;53.168;18.156;2024-01-30T00:44:37;41.80;;;18.60;;
76552;SDS011;65395;53.168;18.156;2024-01-30T00:47:05;40.70;;;17.50;;
76552;SDS011;65395;53.168;18.156;2024-01-30T00:49:32;41.40;;;18.10;;
76552;SDS011;65395;53.168;18.156;2024-01-30T00:51:59;40.60;;;17.40;;
76552;SDS011;65395;53.168;18.156;2024-01-30T00:54:25;46.60;;;18.90;;
76552;SDS011;65395;53.168;18.156;2024-01-30T00:56:52;44.50;;;18.40;;
76552;SDS011;65395;53.168;18.156;2024-01-30T00:59:19;44.50;;;17.80;;
76552;SDS011;65395;53.168;18.156;2024-01-30T01:01:46;41.20;;;18.20;;
76552;SDS011;65395;53.168;18.156;2024-01-30T01:04:13;41.10;;;17.70;;
76552;SDS011;65395;53.168;18.156;2024-01-30T01:06:40;45.10;;;18.90;;
76552;SDS011;65395;53.168;18.156;2024-01-30T01:09:11;46.50;;;17.50;;
76552;SDS011;65395;53.168;18.156;2024-01-30T01:11:38;42.90;;;18.20;;
76552;SDS011;65395;53.168;18.156;2024-01-30T01:14:05;42.10;;;18.90;;
76552;SDS011;65395;53.168;18.156;2024-01-30T01:16:32;39.40;;;17.10;;
76552;SDS011;65395;53.168;18.156;2024-01-30T01:19:00;42.80;;;18.30;;
76552;SDS011;65395;53.168;18.156;2024-01-30T01:21:27;43.60;;;17.90;;
76552;SDS011;65395;53.168;18.156;2024-01-30T01:23:54;47.10;;;18.40;;
76552;SDS011;65395;53.168;18.156;2024-01-30T01:26:21;42.70;;;18.20;;
76552;SDS011;65395;53.168;18.156;2024-01-30T01:28:48;41.40;;;17.70;;
76552;SDS011;65395;53.168;18.156;2024-01-30T01:31:15;42.70;;;18.00;;
76552;SDS011;65395;53.168;18.156;2024-01-30T01:33:43;38.20;;;16.50;;
76552;SDS011;65395;53.168;18.156;2024-01-30T01:36:10;44.50;;;17.40;;
76552;SDS011;65395;53.168;18.156;2024-01-30T01:38:37;38.30;;;16.70;;
76552;SDS011;65395;53.168;18.156;2024-01-30T01:41:04;40.00;;;16.60;;
76552;SDS011;65395;53.168;18.156;2024-01-30T01:43:31;42.90;;;16.70;;
76552;SDS011;65395;53.168;18.156;2024-01-30T01:45:59;43.70;;;17.30;;
76552;SDS011;65395;53.168;18.156;2024-01-30T01:48:26;39.00;;;17.20;;
76552;SDS011;65395;53.168;18.156;2024-01-30T01:50:53;40.40;;;17.30;;
76552;SDS011;65395;53.168;18.156;2024-01-30T01:53:20;38.70;;;16.40;;
76552;SDS011;65395;53.168;18.156;2024-01-30T01:55:48;38.80;;;16.60;;
76552;SDS011;65395;53.168;18.156;2024-01-30T01:58:15;40.00;;;16.30;;
76552;SDS011;65395;53.168;18.156;2024-01-30T02:00:43;37.00;;;16.00;;
76552;SDS011;65395;53.168;18.156;2024-01-30T02:03:10;44.60;;;17.70;;
76552;SDS011;65395;53.168;18.156;2024-01-30T02:05:39;36.80;;;16.00;;
76552;SDS011;65395;53.168;18.156;2024-01-30T02:08:07;41.60;;;16.20;;
76552;SDS011;65395;53.168;18.156;2024-01-30T02:10:35;38.80;;;15.60;;
76552;SDS011;65395;53.168;18.156;2024-01-30T02:13:02;37.80;;;16.30;;
76552;SDS011;65395;53.168;18.156;2024-01-30T02:15:29;40.30;;;16.20;;
76552;SDS011;65395;53.168;18.156;2024-01-30T02:17:55;40.10;;;16.40;;
76552;SDS011;65395;53.168;18.156;2024-01-30T02:20:23;37.00;;;16.10;;
76552;SDS011;65395;53.168;18.156;2024-01-30T02:22:52;41.10;;;16.50;;
76552;SDS011;65395;53.168;18.156;2024-01-30T02:25:30;40.60;;;16.70;;
76552;SDS011;65395;53.168;18.156;2024-01-30T02:27:58;46.50;;;16.10;;
76552;SDS011;65395;53.168;18.156;2024-01-30T02:30:25;44.80;;;17.10;;
76552;SDS011;65395;53.168;18.156;2024-01-30T02:32:52;44.70;;;17.70;;
76552;SDS011;65395;53.168;18.156;2024-01-30T02:35:19;42.80;;;17.70;;
76552;SDS011;65395;53.168;18.156;2024-01-30T02:37:46;46.70;;;17.60;;
76552;SDS011;65395;53.168;18.156;2024-01-30T02:40:13;42.30;;;16.70;;
76552;SDS011;65395;53.168;18.156;2024-01-30T02:42:40;39.60;;;16.70;;
76552;SDS011;65395;53.168;18.156;2024-01-30T02:45:08;40.70;;;16.70;;
76552;SDS011;65395;53.168;18.156;2024-01-30T02:47:36;37.70;;;16.60;;
76552;SDS011;65395;53.168;18.156;2024-01-30T02:50:03;44.00;;;16.60;;
76552;SDS011;65395;53.168;18.156;2024-01-30T02:52:30;39.60;;;16.10;;
76552;SDS011;65395;53.168;18.156;2024-01-30T02:54:57;38.50;;;16.10;;
76552;SDS011;65395;53.168;18.156;2024-01-30T02:57:24;42.40;;;16.40;;
76552;SDS011;65395;53.168;18.156;2024-01-30T02:59:51;40.30;;;16.10;;
76552;SDS011;65395;53.168;18.156;2024-01-30T03:02:18;37.30;;;16.10;;
76552;SDS011;65395;53.168;18.156;2024-01-30T03:04:45;43.50;;;17.20;;
76552;SDS011;65395;53.168;18.156;2024-01-30T03:07:13;40.90;;;16.20;;
76552;SDS011;65395;53.168;18.156;2024-01-30T03:09:41;39.20;;;16.40;;
76552;SDS011;65395;53.168;18.156;2024-01-30T03:12:10;40.50;;;16.10;;
76552;SDS011;65395;53.168;18.156;2024-01-30T03:14:37;38.90;;;16.40;;
76552;SDS011;65395;53.168;18.156;2024-01-30T03:17:04;40.10;;;16.40;;
76552;SDS011;65395;53.168;18.156;2024-01-30T03:19:31;39.20;;;15.10;;
76552;SDS011;65395;53.168;18.156;2024-01-30T03:21:58;38.90;;;15.20;;
76552;SDS011;65395;53.168;18.156;2024-01-30T03:24:25;40.30;;;15.80;;
76552;SDS011;65395;53.168;18.156;2024-01-30T03:26:53;39.60;;;16.20;;
76552;SDS011;65395;53.168;18.156;2024-01-30T03:29:20;37.30;;;16.60;;
76552;SDS011;65395;53.168;18.156;2024-01-30T03:31:47;39.40;;;15.70;;
76552;SDS011;65395;53.168;18.156;2024-01-30T03:34:13;35.60;;;14.90;;
76552;SDS011;65395;53.168;18.156;2024-01-30T03:36:40;38.60;;;16.90;;
76552;SDS011;65395;53.168;18.156;2024-01-30T03:39:08;33.80;;;15.00;;
76552;SDS011;65395;53.168;18.156;2024-01-30T03:41:34;40.40;;;16.20;;
76552;SDS011;65395;53.168;18.156;2024-01-30T03:44:01;38.00;;;15.60;;
76552;SDS011;65395;53.168;18.156;2024-01-30T03:46:28;44.20;;;17.00;;
76552;SDS011;65395;53.168;18.156;2024-01-30T03:48:55;42.60;;;16.60;;
76552;SDS011;65395;53.168;18.156;2024-01-30T03:51:22;37.90;;;16.10;;
76552;SDS011;65395;53.168;18.156;2024-01-30T03:53:49;34.20;;;15.70;;
76552;SDS011;65395;53.168;18.156;2024-01-30T03:56:16;39.40;;;16.10;;
76552;SDS011;65395;53.168;18.156;2024-01-30T03:58:43;37.70;;;17.50;;
76552;SDS011;65395;53.168;18.156;2024-01-30T04:01:17;32.70;;;15.20;;
76552;SDS011;65395;53.168;18.156;2024-01-30T04:03:44;38.50;;;16.00;;
76552;SDS011;65395;53.168;18.156;2024-01-30T04:06:11;39.00;;;16.60;;
76552;SDS011;65395;53.168;18.156;2024-01-30T04:08:38;43.00;;;16.60;;
76552;SDS011;65395;53.168;18.156;2024-01-30T04:11:05;34.70;;;14.40;;
76552;SDS011;65395;53.168;18.156;2024-01-30T04:13:32;37.50;;;15.10;;
76552;SDS011;65395;53.168;18.156;2024-01-30T04:16:00;38.60;;;16.20;;
76552;SDS011;65395;53.168;18.156;2024-01-30T04:18:29;40.90;;;16.00;;
76552;SDS011;65395;53.168;18.156;2024-01-30T04:20:56;36.30;;;15.30;;
76552;SDS011;65395;53.168;18.156;2024-01-30T04:23:23;34.80;;;15.10;;
76552;SDS011;65395;53.168;18.156;2024-01-30T04:25:50;38.30;;;15.70;;
76552;SDS011;65395;53.168;18.156;2024-01-30T04:28:17;37.30;;;15.40;;
76552;SDS011;65395;53.168;18.156;2024-01-30T04:30:44;37.10;;;15.20;;
76552;SDS011;65395;53.168;18.156;2024-01-30T04:33:11;34.20;;;15.50;;
76552;SDS011;65395;53.168;18.156;2024-01-30T04:35:38;34.40;;;15.40;;
76552;SDS011;65395;53.168;18.156;2024-01-30T04:38:05;38.50;;;15.30;;
76552;SDS011;65395;53.168;18.156;2024-01-30T04:40:32;34.00;;;15.70;;
76552;SDS011;65395;53.168;18.156;2024-01-30T04:42:59;38.30;;;15.80;;
76552;SDS011;65395;53.168;18.156;2024-01-30T04:45:26;38.30;;;15.50;;
76552;SDS011;65395;53.168;18.156;2024-01-30T04:47:53;37.80;;;15.20;;
76552;SDS011;65395;53.168;18.156;2024-01-30T04:50:19;33.00;;;15.20;;
76552;SDS011;65395;53.168;18.156;2024-01-30T04:52:46;35.10;;;15.20;;
76552;SDS011;65395;53.168;18.156;2024-01-30T04:55:13;33.20;;;15.40;;
76552;SDS011;65395;53.168;18.156;2024-01-30T04:57:40;36.00;;;14.50;;
76552;SDS011;65395;53.168;18.156;2024-01-30T05:00:07;38.70;;;16.40;;
76552;SDS011;65395;53.168;18.156;2024-01-30T05:02:34;36.60;;;15.60;;
76552;SDS011;65395;53.168;18.156;2024-01-30T05:05:01;41.60;;;18.90;;
76552;SDS011;65395;53.168;18.156;2024-01-30T05:07:28;39.20;;;16.30;;
76552;SDS011;65395;53.168;18.156;2024-01-30T05:09:54;50.80;;;20.50;;
76552;SDS011;65395;53.168;18.156;2024-01-30T05:12:21;41.10;;;17.00;;
76552;SDS011;65395;53.168;18.156;2024-01-30T05:14:48;42.00;;;17.30;;
76552;SDS011;65395;53.168;18.156;2024-01-30T05:17:15;41.20;;;19.00;;
76552;SDS011;65395;53.168;18.156;2024-01-30T05:19:43;41.40;;;19.10;;
76552;SDS011;65395;53.168;18.156;2024-01-30T05:22:10;46.10;;;19.60;;
76552;SDS011;65395;53.168;18.156;2024-01-30T05:24:37;42.10;;;18.80;;
76552;SDS011;65395;53.168;18.156;2024-01-30T05:27:04;40.80;;;17.30;;
76552;SDS011;65395;53.168;18.156;2024-01-30T05:29:31;42.90;;;17.80;;
76552;SDS011;65395;53.168;18.156;2024-01-30T05:31:58;40.10;;;17.30;;
76552;SDS011;65395;53.168;18.156;2024-01-30T05:34:24;39.50;;;16.80;;
76552;SDS011;65395;53.168;18.156;2024-01-30T05:36:51;40.60;;;17.00;;
76552;SDS011;65395;53.168;18.156;2024-01-30T05:39:18;43.40;;;16.50;;
76552;SDS011;65395;53.168;18.156;2024-01-30T05:41:46;39.10;;;17.40;;
76552;SDS011;65395;53.168;18.156;2024-01-30T05:44:13;44.80;;;18.20;;
76552;SDS011;65395;53.168;18.156;2024-01-30T05:46:40;38.30;;;17.00;;
76552;SDS011;65395;53.168;18.156;2024-01-30T05:49:06;38.50;;;17.10;;
76552;SDS011;65395;53.168;18.156;2024-01-30T05:51:33;44.10;;;17.40;;
76552;SDS011;65395;53.168;18.156;2024-01-30T05:54:00;41.60;;;17.60;;
76552;SDS011;65395;53.168;18.156;2024-01-30T05:56:29;43.80;;;19.80;;
76552;SDS011;65395;53.168;18.156;2024-01-30T05:58:56;49.10;;;19.60;;
76552;SDS011;65395;53.168;18.156;2024-01-30T06:01:23;42.80;;;17.90;;
76552;SDS011;65395;53.168;18.156;2024-01-30T06:03:50;55.00;;;20.40;;
76552;SDS011;65395;53.168;18.156;2024-01-30T06:06:17;46.90;;;20.40;;
76552;SDS011;65395;53.168;18.156;2024-01-30T06:08:44;45.10;;;19.60;;
76552;SDS011;65395;53.168;18.156;2024-01-30T06:11:11;44.30;;;18.10;;
76552;SDS011;65395;53.168;18.156;2024-01-30T06:13:38;43.70;;;18.10;;
76552;SDS011;65395;53.168;18.156;2024-01-30T06:16:08;55.30;;;21.70;;
76552;SDS011;65395;53.168;18.156;2024-01-30T06:18:36;51.50;;;20.40;;
76552;SDS011;65395;53.168;18.156;2024-01-30T06:21:04;50.90;;;19.70;;
76552;SDS011;65395;53.168;18.156;2024-01-30T06:23:31;45.80;;;19.10;;
76552;SDS011;65395;53.168;18.156;2024-01-30T06:25:58;50.50;;;20.40;;
76552;SDS011;65395;53.168;18.156;2024-01-30T06:28:25;50.30;;;19.10;;
76552;SDS011;65395;53.168;18.156;2024-01-30T06:30:52;44.70;;;17.30;;
76552;SDS011;65395;53.168;18.156;2024-01-30T06:33:19;45.40;;;19.30;;
76552;SDS011;65395;53.168;18.156;2024-01-30T06:35:46;53.70;;;22.20;;
76552;SDS011;65395;53.168;18.156;2024-01-30T06:38:13;56.40;;;24.20;;
76552;SDS011;65395;53.168;18.156;2024-01-30T06:40:41;49.30;;;20.90;;
76552;SDS011;65395;53.168;18.156;2024-01-30T06:43:09;50.40;;;19.80;;
76552;SDS011;65395;53.168;18.156;2024-01-30T06:45:36;46.30;;;19.20;;
76552;SDS011;65395;53.168;18.156;2024-01-30T06:48:03;49.50;;;20.10;;
76552;SDS011;65395;53.168;18.156;2024-01-30T06:50:30;54.30;;;21.90;;
76552;SDS011;65395;53.168;18.156;2024-01-30T06:52:57;53.30;;;21.50;;
76552;SDS011;65395;53.168;18.156;2024-01-30T06:55:24;54.60;;;22.30;;
76552;SDS011;65395;53.168;18.156;2024-01-30T06:57:51;43.30;;;20.40;;
76552;SDS011;65395;53.168;18.156;2024-01-30T07:00:18;52.50;;;21.10;;
76552;SDS011;65395;53.168;18.156;2024-01-30T07:02:46;55.00;;;22.70;;
76552;SDS011;65395;53.168;18.156;2024-01-30T07:05:13;47.80;;;21.10;;
76552;SDS011;65395;53.168;18.156;2024-01-30T07:07:40;45.80;;;19.50;;
76552;SDS011;65395;53.168;18.156;2024-01-30T07:10:07;51.00;;;20.50;;
76552;SDS011;65395;53.168;18.156;2024-01-30T07:12:34;51.80;;;21.60;;
76552;SDS011;65395;53.168;18.156;2024-01-30T07:15:01;49.70;;;21.00;;
76552;SDS011;65395;53.168;18.156;2024-01-30T07:17:29;43.40;;;19.00;;
76552;SDS011;65395;53.168;18.156;2024-01-30T07:19:56;40.30;;;17.70;;
76552;SDS011;65395;53.168;18.156;2024-01-30T07:22:23;45.80;;;19.90;;
76552;SDS011;65395;53.168;18.156;2024-01-30T07:24:51;43.80;;;18.60;;
76552;SDS011;65395;53.168;18.156;2024-01-30T07:27:18;45.00;;;20.10;;
76552;SDS011;65395;53.168;18.156;2024-01-30T07:29:45;48.10;;;18.90;;
76552;SDS011;65395;53.168;18.156;2024-01-30T07:32:12;48.00;;;19.20;;
76552;SDS011;65395;53.168;18.156;2024-01-30T07:34:39;40.70;;;18.70;;
76552;SDS011;65395;53.168;18.156;2024-01-30T07:37:06;40.20;;;18.70;;
76552;SDS011;65395;53.168;18.156;2024-01-30T07:39:34;41.90;;;17.80;;
76552;SDS011;65395;53.168;18.156;2024-01-30T07:42:02;45.30;;;19.90;;
76552;SDS011;65395;53.168;18.156;2024-01-30T07:44:29;41.30;;;18.40;;
76552;SDS011;65395;53.168;18.156;2024-01-30T07:46:56;40.80;;;17.60;;
76552;SDS011;65395;53.168;18.156;2024-01-30T07:49:23;47.10;;;18.70;;
76552;SDS011;65395;53.168;18.156;2024-01-30T07:51:50;40.30;;;18.40;;
76552;SDS011;65395;53.168;18.156;2024-01-30T07:54:17;40.20;;;17.80;;
76552;SDS011;65395;53.168;18.156;2024-01-30T07:56:44;47.20;;;18.50;;
76552;SDS011;65395;53.168;18.156;2024-01-30T07:59:11;41.50;;;18.30;;
76552;SDS011;65395;53.168;18.156;2024-01-30T08:01:38;40.00;;;17.90;;
76552;SDS011;65395;53.168;18.156;2024-01-30T08:04:05;37.20;;;15.50;;
76552;SDS011;65395;53.168;18.156;2024-01-30T08:06:32;39.30;;;17.20;;
76552;SDS011;65395;53.168;18.156;2024-01-30T08:08:59;40.20;;;17.20;;
76552;SDS011;65395;53.168;18.156;2024-01-30T08:11:26;40.10;;;17.50;;
76552;SDS011;65395;53.168;18.156;2024-01-30T08:13:55;39.10;;;17.30;;
76552;SDS011;65395;53.168;18.156;2024-01-30T08:16:22;41.20;;;18.50;;
76552;SDS011;65395;53.168;18.156;2024-01-30T08:18:49;45.20;;;19.20;;
76552;SDS011;65395;53.168;18.156;2024-01-30T08:21:16;40.50;;;17.50;;
76552;SDS011;65395;53.168;18.156;2024-01-30T08:23:43;40.90;;;17.70;;
76552;SDS011;65395;53.168;18.156;2024-01-30T08:26:10;46.30;;;17.40;;
76552;SDS011;65395;53.168;18.156;2024-01-30T08:28:37;38.30;;;17.40;;
76552;SDS011;65395;53.168;18.156;2024-01-30T08:31:04;38.00;;;17.70;;
76552;SDS011;65395;53.168;18.156;2024-01-30T08:33:31;41.40;;;18.20;;
76552;SDS011;65395;53.168;18.156;2024-01-30T08:35:58;41.40;;;19.30;;
76552;SDS011;65395;53.168;18.156;2024-01-30T08:38:25;37.90;;;18.00;;
76552;SDS011;65395;53.168;18.156;2024-01-30T08:40:52;43.30;;;19.10;;
76552;SDS011;65395;53.168;18.156;2024-01-30T08:43:19;42.50;;;18.90;;
76552;SDS011;65395;53.168;18.156;2024-01-30T08:45:46;41.90;;;19.10;;
76552;SDS011;65395;53.168;18.156;2024-01-30T08:48:13;44.50;;;19.50;;
76552;SDS011;65395;53.168;18.156;2024-01-30T08:50:40;40.20;;;18.40;;
76552;SDS011;65395;53.168;18.156;2024-01-30T08:53:07;39.10;;;18.20;;
76552;SDS011;65395;53.168;18.156;2024-01-30T08:55:34;42.70;;;18.80;;
76552;SDS011;65395;53.168;18.156;2024-01-30T08:58:01;36.30;;;17.60;;
76552;SDS011;65395;53.168;18.156;2024-01-30T09:00:30;39.20;;;18.50;;
76552;SDS011;65395;53.168;18.156;2024-01-30T09:02:57;42.10;;;18.00;;
76552;SDS011;65395;53.168;18.156;2024-01-30T09:05:24;38.00;;;17.40;;
76552;SDS011;65395;53.168;18.156;2024-01-30T09:07:51;42.70;;;18.40;;
76552;SDS011;65395;53.168;18.156;2024-01-30T09:10:18;38.40;;;18.10;;
76552;SDS011;65395;53.168;18.156;2024-01-30T09:12:46;39.10;;;18.00;;
76552;SDS011;65395;53.168;18.156;2024-01-30T09:15:13;39.10;;;18.30;;
76552;SDS011;65395;53.168;18.156;2024-01-30T09:17:40;44.10;;;18.30;;
76552;SDS011;65395;53.168;18.156;2024-01-30T09:20:07;37.80;;;17.40;;
76552;SDS011;65395;53.168;18.156;2024-01-30T09:22:35;37.60;;;17.90;;
76552;SDS011;65395;53.168;18.156;2024-01-30T09:25:03;39.70;;;16.80;;
76552;SDS011;65395;53.168;18.156;2024-01-30T09:27:30;37.40;;;17.30;;
76552;SDS011;65395;53.168;18.156;2024-01-30T09:29:57;41.50;;;17.40;;
76552;SDS011;65395;53.168;18.156;2024-01-30T09:32:24;33.30;;;16.00;;
76552;SDS011;65395;53.168;18.156;2024-01-30T09:34:51;35.20;;;16.90;;
76552;SDS011;65395;53.168;18.156;2024-01-30T09:37:18;35.90;;;16.80;;
76552;SDS011;65395;53.168;18.156;2024-01-30T09:39:45;36.50;;;16.50;;
76552;SDS011;65395;53.168;18.156;2024-01-30T09:44:56;33.80;;;15.20;;
76552;SDS011;65395;53.168;18.156;2024-01-30T09:47:23;34.20;;;15.70;;
76552;SDS011;65395;53.168;18.156;2024-01-30T09:49:51;36.10;;;15.00;;
76552;SDS011;65395;53.168;18.156;2024-01-30T09:52:17;28.10;;;13.90;;
76552;SDS011;65395;53.168;18.156;2024-01-30T09:54:45;31.50;;;14.80;;
76552;SDS011;65395;53.168;18.156;2024-01-30T09:57:12;29.10;;;14.00;;
76552;SDS011;65395;53.168;18.156;2024-01-30T09:59:39;31.90;;;13.90;;
76552;SDS011;65395;53.168;18.156;2024-01-30T10:02:08;28.70;;;13.90;;
76552;SDS011;65395;53.168;18.156;2024-01-30T10:04:35;29.70;;;13.90;;
76552;SDS011;65395;53.168;18.156;2024-01-30T10:07:02;26.70;;;13.00;;
76552;SDS011;65395;53.168;18.156;2024-01-30T10:09:31;27.40;;;12.80;;
76552;SDS011;65395;53.168;18.156;2024-01-30T10:11:59;25.10;;;12.20;;
76552;SDS011;65395;53.168;18.156;2024-01-30T10:14:27;25.80;;;11.80;;
76552;SDS011;65395;53.168;18.156;2024-01-30T10:16:55;26.50;;;11.70;;
76552;SDS011;65395;53.168;18.156;2024-01-30T10:19:23;26.00;;;12.20;;
76552;SDS011;65395;53.168;18.156;2024-01-30T10:21:50;21.70;;;11.50;;
76552;SDS011;65395;53.168;18.156;2024-01-30T10:24:18;26.30;;;12.20;;
76552;SDS011;65395;53.168;18.156;2024-01-30T10:26:45;26.10;;;11.60;;
76552;SDS011;65395;53.168;18.156;2024-01-30T10:29:12;26.20;;;11.30;;
76552;SDS011;65395;53.168;18.156;2024-01-30T10:31:39;28.70;;;12.70;;
76552;SDS011;65395;53.168;18.156;2024-01-30T10:34:06;24.80;;;12.20;;
76552;SDS011;65395;53.168;18.156;2024-01-30T10:36:33;25.60;;;12.60;;
76552;SDS011;65395;53.168;18.156;2024-01-30T10:39:05;29.40;;;12.70;;
76552;SDS011;65395;53.168;18.156;2024-01-30T10:41:34;22.70;;;11.50;;
76552;SDS011;65395;53.168;18.156;2024-01-30T10:44:15;24.10;;;11.80;;
76552;SDS011;65395;53.168;18.156;2024-01-30T10:46:47;27.30;;;12.80;;
76552;SDS011;65395;53.168;18.156;2024-01-30T10:49:22;28.10;;;12.40;;
76552;SDS011;65395;53.168;18.156;2024-01-30T10:51:50;21.90;;;11.30;;
76552;SDS011;65395;53.168;18.156;2024-01-30T10:54:19;23.90;;;11.60;;
76552;SDS011;65395;53.168;18.156;2024-01-30T10:56:46;28.30;;;11.70;;
76552;SDS011;65395;53.168;18.156;2024-01-30T10:59:15;22.60;;;11.90;;
76552;SDS011;65395;53.168;18.156;2024-01-30T11:01:42;24.60;;;11.20;;
76552;SDS011;65395;53.168;18.156;2024-01-30T11:04:09;21.40;;;11.20;;
76552;SDS011;65395;53.168;18.156;2024-01-30T11:06:44;25.70;;;11.10;;
76552;SDS011;65395;53.168;18.156;2024-01-30T11:09:11;25.60;;;11.30;;
76552;SDS011;65395;53.168;18.156;2024-01-30T11:14:16;24.20;;;11.20;;
76552;SDS011;65395;53.168;18.156;2024-01-30T11:16:49;23.50;;;11.20;;
76552;SDS011;65395;53.168;18.156;2024-01-30T11:19:21;26.90;;;11.50;;
76552;SDS011;65395;53.168;18.156;2024-01-30T11:21:50;26.50;;;11.40;;
76552;SDS011;65395;53.168;18.156;2024-01-30T11:24:20;21.60;;;11.10;;
76552;SDS011;65395;53.168;18.156;2024-01-30T11:26:54;20.40;;;10.70;;
76552;SDS011;65395;53.168;18.156;2024-01-30T11:29:25;22.30;;;11.00;;
76552;SDS011;65395;53.168;18.156;2024-01-30T11:31:54;21.80;;;11.00;;
76552;SDS011;65395;53.168;18.156;2024-01-30T11:34:22;19.80;;;10.10;;
76552;SDS011;65395;53.168;18.156;2024-01-30T11:36:55;24.00;;;10.50;;
76552;SDS011;65395;53.168;18.156;2024-01-30T11:39:25;22.00;;;11.10;;
76552;SDS011;65395;53.168;18.156;2024-01-30T11:41:53;23.20;;;11.10;;
76552;SDS011;65395;53.168;18.156;2024-01-30T11:44:20;19.90;;;10.50;;
76552;SDS011;65395;53.168;18.156;2024-01-30T11:46:48;20.30;;;10.30;;
76552;SDS011;65395;53.168;18.156;2024-01-30T11:49:15;20.30;;;10.00;;
76552;SDS011;65395;53.168;18.156;2024-01-30T11:51:45;20.20;;;9.90;;
76552;SDS011;65395;53.168;18.156;2024-01-30T11:54:12;18.60;;;10.30;;
76552;SDS011;65395;53.168;18.156;2024-01-30T11:56:40;20.90;;;10.60;;
76552;SDS011;65395;53.168;18.156;2024-01-30T11:59:08;21.50;;;11.10;;
76552;SDS011;65395;53.168;18.156;2024-01-30T12:01:35;18.60;;;10.50;;
76552;SDS011;65395;53.168;18.156;2024-01-30T12:04:02;20.10;;;10.00;;
76552;SDS011;65395;53.168;18.156;2024-01-30T12:06:34;19.00;;;9.70;;
76552;SDS011;65395;53.168;18.156;2024-01-30T12:09:02;18.20;;;10.00;;
76552;SDS011;65395;53.168;18.156;2024-01-30T12:11:31;18.20;;;9.40;;
76552;SDS011;65395;53.168;18.156;2024-01-30T12:13:58;18.80;;;9.10;;
76552;SDS011;65395;53.168;18.156;2024-01-30T12:16:25;18.80;;;10.00;;
76552;SDS011;65395;53.168;18.156;2024-01-30T12:18:59;20.00;;;9.90;;
76552;SDS011;65395;53.168;18.156;2024-01-30T12:21:28;22.50;;;10.00;;
76552;SDS011;65395;53.168;18.156;2024-01-30T12:23:57;19.10;;;10.00;;
76552;SDS011;65395;53.168;18.156;2024-01-30T12:26:24;18.40;;;9.60;;
76552;SDS011;65395;53.168;18.156;2024-01-30T12:28:54;23.20;;;10.90;;
76552;SDS011;65395;53.168;18.156;2024-01-30T12:31:25;20.30;;;10.40;;
76552;SDS011;65395;53.168;18.156;2024-01-30T12:33:54;21.90;;;10.10;;
76552;SDS011;65395;53.168;18.156;2024-01-30T12:36:21;21.40;;;9.50;;
76552;SDS011;65395;53.168;18.156;2024-01-30T12:38:49;20.80;;;9.90;;
76552;SDS011;65395;53.168;18.156;2024-01-30T12:41:16;21.20;;;9.60;;
76552;SDS011;65395;53.168;18.156;2024-01-30T12:43:43;18.70;;;9.80;;
76552;SDS011;65395;53.168;18.156;2024-01-30T12:46:11;19.60;;;9.70;;
76552;SDS011;65395;53.168;18.156;2024-01-30T12:48:38;19.50;;;9.70;;
76552;SDS011;65395;53.168;18.156;2024-01-30T12:51:05;17.90;;;9.50;;
76552;SDS011;65395;53.168;18.156;2024-01-30T12:53:32;22.40;;;10.30;;
76552;SDS011;65395;53.168;18.156;2024-01-30T12:55:59;22.20;;;10.20;;
76552;SDS011;65395;53.168;18.156;2024-01-30T12:58:26;20.60;;;10.10;;
76552;SDS011;65395;53.168;18.156;2024-01-30T13:00:53;20.90;;;10.10;;
76552;SDS011;65395;53.168;18.156;2024-01-30T13:03:21;22.30;;;10.60;;
76552;SDS011;65395;53.168;18.156;2024-01-30T13:05:48;24.30;;;11.00;;
76552;SDS011;65395;53.168;18.156;2024-01-30T13:08:15;20.80;;;11.40;;
76552;SDS011;65395;53.168;18.156;2024-01-30T13:10:42;23.00;;;10.30;;
76552;SDS011;65395;53.168;18.156;2024-01-30T13:13:09;20.00;;;10.40;;
76552;SDS011;65395;53.168;18.156;2024-01-30T13:15:36;22.00;;;9.90;;
76552;SDS011;65395;53.168;18.156;2024-01-30T13:18:03;19.90;;;10.40;;
76552;SDS011;65395;53.168;18.156;2024-01-30T13:20:31;19.90;;;9.80;;
76552;SDS011;65395;53.168;18.156;2024-01-30T13:22:58;20.40;;;10.30;;
76552;SDS011;65395;53.168;18.156;2024-01-30T13:25:25;23.50;;;10.50;;
76552;SDS011;65395;53.168;18.156;2024-01-30T13:27:52;19.40;;;10.20;;
76552;SDS011;65395;53.168;18.156;2024-01-30T13:30:19;24.00;;;10.20;;
76552;SDS011;65395;53.168;18.156;2024-01-30T13:32:46;19.90;;;10.80;;
76552;SDS011;65395;53.168;18.156;2024-01-30T13:35:13;21.40;;;10.10;;
76552;SDS011;65395;53.168;18.156;2024-01-30T13:37:40;20.20;;;10.60;;
76552;SDS011;65395;53.168;18.156;2024-01-30T13:40:08;19.10;;;11.00;;
76552;SDS011;65395;53.168;18.156;2024-01-30T13:42:36;20.90;;;10.40;;
76552;SDS011;65395;53.168;18.156;2024-01-30T13:45:03;23.00;;;9.80;;
76552;SDS011;65395;53.168;18.156;2024-01-30T13:47:30;22.70;;;10.40;;
76552;SDS011;65395;53.168;18.156;2024-01-30T13:49:57;19.10;;;9.70;;
76552;SDS011;65395;53.168;18.156;2024-01-30T13:52:24;24.40;;;10.40;;
76552;SDS011;65395;53.168;18.156;2024-01-30T13:54:51;20.60;;;9.90;;
76552;SDS011;65395;53.168;18.156;2024-01-30T13:57:18;24.20;;;10.90;;
76552;SDS011;65395;53.168;18.156;2024-01-30T13:59:45;20.70;;;10.10;;
76552;SDS011;65395;53.168;18.156;2024-01-30T14:02:13;25.20;;;10.10;;
76552;SDS011;65395;53.168;18.156;2024-01-30T14:04:40;22.70;;;10.50;;
76552;SDS011;65395;53.168;18.156;2024-01-30T14:07:06;24.40;;;11.20;;
76552;SDS011;65395;53.168;18.156;2024-01-30T14:09:33;22.10;;;10.40;;
76552;SDS011;65395;53.168;18.156;2024-01-30T14:12:01;24.00;;;10.70;;
76552;SDS011;65395;53.168;18.156;2024-01-30T14:14:28;23.30;;;10.30;;